sensor_id;sensor_type;location;lat;lon;timestamp;P1;durP1;ratioP1;P2;durP2;ratioP2
26034;SDS011;13809;48.632;11.576;2023-07-22T00:03:52;1.70;;;1.60;;
26034;SDS011;13809;48.632;11.576;2023-07-22T00:08:56;1.73;;;1.63;;
26034;SDS011;13809;48.632;11.576;2023-07-22T00:13:59;2.63;;;1.80;;
26034;SDS011;13809;48.632;11.576;2023-07-22T00:19:04;4.03;;;2.00;;
26034;SDS011;13809;48.632;11.576;2023-07-22T00:24:08;2.77;;;1.80;;
26034;SDS011;13809;48.632;11.576;2023-07-22T00:29:12;1.57;;;1.47;;
26034;SDS011;13809;48.632;11.576;2023-07-22T00:34:17;3.13;;;2.00;;
26034;SDS011;13809;48.632;11.576;2023-07-22T00:39:20;3.57;;;1.80;;
26034;SDS011;13809;48.632;11.576;2023-07-22T00:44:24;2.37;;;2.07;;
26034;SDS011;13809;48.632;11.576;2023-07-22T00:49:28;1.50;;;1.40;;
26034;SDS011;13809;48.632;11.576;2023-07-22T00:54:33;1.80;;;1.70;;
26034;SDS011;13809;48.632;11.576;2023-07-22T00:59:36;2.07;;;1.90;;
26034;SDS011;13809;48.632;11.576;2023-07-22T01:04:41;2.57;;;2.13;;
26034;SDS011;13809;48.632;11.576;2023-07-22T01:09:45;1.83;;;1.73;;
26034;SDS011;13809;48.632;11.576;2023-07-22T01:14:48;2.07;;;1.90;;
26034;SDS011;13809;48.632;11.576;2023-07-22T01:19:53;2.10;;;1.90;;
26034;SDS011;13809;48.632;11.576;2023-07-22T01:24:58;3.50;;;2.10;;
26034;SDS011;13809;48.632;11.576;2023-07-22T01:30:03;8.73;;;2.43;;
26034;SDS011;13809;48.632;11.576;2023-07-22T01:35:08;2.57;;;2.10;;
26034;SDS011;13809;48.632;11.576;2023-07-22T01:40:13;2.40;;;1.60;;
26034;SDS011;13809;48.632;11.576;2023-07-22T01:45:16;2.07;;;1.90;;
26034;SDS011;13809;48.632;11.576;2023-07-22T01:50:20;2.40;;;1.80;;
26034;SDS011;13809;48.632;11.576;2023-07-22T01:55:25;2.00;;;1.77;;
26034;SDS011;13809;48.632;11.576;2023-07-22T02:00:28;6.93;;;1.87;;
26034;SDS011;13809;48.632;11.576;2023-07-22T02:05:31;2.20;;;2.00;;
26034;SDS011;13809;48.632;11.576;2023-07-22T02:10:36;1.93;;;1.80;;
26034;SDS011;13809;48.632;11.576;2023-07-22T02:15:40;1.60;;;1.50;;
26034;SDS011;13809;48.632;11.576;2023-07-22T02:20:44;1.73;;;1.63;;
26034;SDS011;13809;48.632;11.576;2023-07-22T02:25:49;2.97;;;2.03;;
26034;SDS011;13809;48.632;11.576;2023-07-22T02:30:53;2.73;;;1.80;;
26034;SDS011;13809;48.632;11.576;2023-07-22T02:35:56;2.00;;;1.90;;
26034;SDS011;13809;48.632;11.576;2023-07-22T02:41:04;3.20;;;2.93;;
26034;SDS011;13809;48.632;11.576;2023-07-22T02:46:09;3.43;;;3.13;;
26034;SDS011;13809;48.632;11.576;2023-07-22T02:51:12;2.70;;;2.50;;
26034;SDS011;13809;48.632;11.576;2023-07-22T02:56:17;2.23;;;2.03;;
26034;SDS011;13809;48.632;11.576;2023-07-22T03:01:20;3.23;;;2.17;;
26034;SDS011;13809;48.632;11.576;2023-07-22T03:06:24;2.57;;;2.37;;
26034;SDS011;13809;48.632;11.576;2023-07-22T03:11:30;3.60;;;2.13;;
26034;SDS011;13809;48.632;11.576;2023-07-22T03:16:33;3.03;;;1.90;;
26034;SDS011;13809;48.632;11.576;2023-07-22T03:21:37;2.33;;;2.13;;
26034;SDS011;13809;48.632;11.576;2023-07-22T03:26:41;2.30;;;2.10;;
26034;SDS011;13809;48.632;11.576;2023-07-22T03:31:45;1.90;;;1.80;;
26034;SDS011;13809;48.632;11.576;2023-07-22T03:36:51;2.67;;;2.17;;
26034;SDS011;13809;48.632;11.576;2023-07-22T03:41:55;3.97;;;2.20;;
26034;SDS011;13809;48.632;11.576;2023-07-22T03:46:59;2.23;;;2.03;;
26034;SDS011;13809;48.632;11.576;2023-07-22T03:52:04;4.93;;;2.33;;
26034;SDS011;13809;48.632;11.576;2023-07-22T03:57:09;1.97;;;1.60;;
26034;SDS011;13809;48.632;11.576;2023-07-22T04:02:12;4.63;;;2.40;;
26034;SDS011;13809;48.632;11.576;2023-07-22T04:07:18;3.67;;;2.00;;
26034;SDS011;13809;48.632;11.576;2023-07-22T04:12:22;3.60;;;2.13;;
26034;SDS011;13809;48.632;11.576;2023-07-22T04:17:25;2.00;;;1.90;;
26034;SDS011;13809;48.632;11.576;2023-07-22T04:22:29;2.83;;;1.90;;
26034;SDS011;13809;48.632;11.576;2023-07-22T04:27:33;4.50;;;2.60;;
26034;SDS011;13809;48.632;11.576;2023-07-22T04:32:36;4.43;;;2.40;;
26034;SDS011;13809;48.632;11.576;2023-07-22T04:37:40;3.33;;;2.33;;
26034;SDS011;13809;48.632;11.576;2023-07-22T04:42:44;2.27;;;2.00;;
26034;SDS011;13809;48.632;11.576;2023-07-22T04:47:48;4.13;;;2.50;;
26034;SDS011;13809;48.632;11.576;2023-07-22T04:52:52;2.97;;;2.10;;
26034;SDS011;13809;48.632;11.576;2023-07-22T04:57:57;2.37;;;2.17;;
26034;SDS011;13809;48.632;11.576;2023-07-22T05:03:04;3.93;;;2.50;;
26034;SDS011;13809;48.632;11.576;2023-07-22T05:08:07;4.00;;;2.40;;
26034;SDS011;13809;48.632;11.576;2023-07-22T05:13:13;2.37;;;2.10;;
26034;SDS011;13809;48.632;11.576;2023-07-22T05:18:17;2.83;;;2.30;;
26034;SDS011;13809;48.632;11.576;2023-07-22T05:23:20;3.87;;;2.27;;
26034;SDS011;13809;48.632;11.576;2023-07-22T05:28:25;2.37;;;2.10;;
26034;SDS011;13809;48.632;11.576;2023-07-22T05:33:28;2.33;;;2.13;;
26034;SDS011;13809;48.632;11.576;2023-07-22T05:38:31;3.67;;;2.17;;
26034;SDS011;13809;48.632;11.576;2023-07-22T05:43:36;2.70;;;2.20;;
26034;SDS011;13809;48.632;11.576;2023-07-22T05:48:39;2.23;;;2.10;;
26034;SDS011;13809;48.632;11.576;2023-07-22T05:53:42;2.40;;;2.20;;
26034;SDS011;13809;48.632;11.576;2023-07-22T05:58:47;3.87;;;2.30;;
26034;SDS011;13809;48.632;11.576;2023-07-22T06:03:51;2.80;;;2.60;;
26034;SDS011;13809;48.632;11.576;2023-07-22T06:08:54;3.23;;;2.57;;
26034;SDS011;13809;48.632;11.576;2023-07-22T06:13:59;2.90;;;2.70;;
26034;SDS011;13809;48.632;11.576;2023-07-22T06:19:03;4.40;;;2.60;;
26034;SDS011;13809;48.632;11.576;2023-07-22T06:24:06;2.60;;;2.40;;
26034;SDS011;13809;48.632;11.576;2023-07-22T06:29:11;2.60;;;2.23;;
26034;SDS011;13809;48.632;11.576;2023-07-22T06:34:16;2.40;;;2.20;;
26034;SDS011;13809;48.632;11.576;2023-07-22T06:39:19;2.30;;;2.00;;
26034;SDS011;13809;48.632;11.576;2023-07-22T06:44:24;2.27;;;2.07;;
26034;SDS011;13809;48.632;11.576;2023-07-22T06:49:27;3.80;;;2.10;;
26034;SDS011;13809;48.632;11.576;2023-07-22T06:54:30;3.90;;;2.40;;
26034;SDS011;13809;48.632;11.576;2023-07-22T06:59:35;2.50;;;2.30;;
26034;SDS011;13809;48.632;11.576;2023-07-22T07:04:39;2.30;;;2.10;;
26034;SDS011;13809;48.632;11.576;2023-07-22T07:09:44;3.37;;;2.03;;
26034;SDS011;13809;48.632;11.576;2023-07-22T07:14:50;2.60;;;2.40;;
26034;SDS011;13809;48.632;11.576;2023-07-22T07:19:55;4.27;;;2.43;;
26034;SDS011;13809;48.632;11.576;2023-07-22T07:24:58;2.30;;;2.10;;
26034;SDS011;13809;48.632;11.576;2023-07-22T07:30:05;3.63;;;2.00;;
26034;SDS011;13809;48.632;11.576;2023-07-22T07:35:11;2.13;;;1.90;;
26034;SDS011;13809;48.632;11.576;2023-07-22T07:45:44;2.20;;;2.10;;
26034;SDS011;13809;48.632;11.576;2023-07-22T07:50:49;3.40;;;2.10;;
26034;SDS011;13809;48.632;11.576;2023-07-22T07:55:52;2.10;;;1.90;;
26034;SDS011;13809;48.632;11.576;2023-07-22T08:00:57;2.47;;;2.27;;
26034;SDS011;13809;48.632;11.576;2023-07-22T08:06:01;1.77;;;1.67;;
26034;SDS011;13809;48.632;11.576;2023-07-22T08:11:06;2.00;;;1.90;;
26034;SDS011;13809;48.632;11.576;2023-07-22T08:16:14;2.40;;;1.70;;
26034;SDS011;13809;48.632;11.576;2023-07-22T08:21:19;3.43;;;1.90;;
26034;SDS011;13809;48.632;11.576;2023-07-22T08:26:22;3.20;;;1.80;;
26034;SDS011;13809;48.632;11.576;2023-07-22T08:31:27;2.00;;;1.80;;
26034;SDS011;13809;48.632;11.576;2023-07-22T08:36:33;1.73;;;1.63;;
26034;SDS011;13809;48.632;11.576;2023-07-22T08:41:37;1.77;;;1.50;;
26034;SDS011;13809;48.632;11.576;2023-07-22T08:46:43;1.97;;;1.87;;
26034;SDS011;13809;48.632;11.576;2023-07-22T08:51:47;2.23;;;2.07;;
26034;SDS011;13809;48.632;11.576;2023-07-22T08:56:52;2.17;;;1.70;;
26034;SDS011;13809;48.632;11.576;2023-07-22T09:01:58;1.93;;;1.73;;
26034;SDS011;13809;48.632;11.576;2023-07-22T09:07:02;2.20;;;2.00;;
26034;SDS011;13809;48.632;11.576;2023-07-22T09:12:11;2.10;;;1.90;;
26034;SDS011;13809;48.632;11.576;2023-07-22T09:17:17;2.00;;;1.80;;
26034;SDS011;13809;48.632;11.576;2023-07-22T09:22:24;2.00;;;1.80;;
26034;SDS011;13809;48.632;11.576;2023-07-22T09:27:34;1.97;;;1.87;;
26034;SDS011;13809;48.632;11.576;2023-07-22T09:32:42;1.83;;;1.73;;
26034;SDS011;13809;48.632;11.576;2023-07-22T09:37:45;1.87;;;1.77;;
26034;SDS011;13809;48.632;11.576;2023-07-22T09:42:50;3.23;;;2.00;;
26034;SDS011;13809;48.632;11.576;2023-07-22T09:47:56;1.70;;;1.60;;
26034;SDS011;13809;48.632;11.576;2023-07-22T09:53:01;2.27;;;1.90;;
26034;SDS011;13809;48.632;11.576;2023-07-22T09:58:05;1.97;;;1.77;;
26034;SDS011;13809;48.632;11.576;2023-07-22T10:03:12;2.00;;;1.90;;
26034;SDS011;13809;48.632;11.576;2023-07-22T10:08:18;1.90;;;1.80;;
26034;SDS011;13809;48.632;11.576;2023-07-22T10:13:23;2.40;;;2.10;;
26034;SDS011;13809;48.632;11.576;2023-07-22T10:18:29;2.37;;;1.73;;
26034;SDS011;13809;48.632;11.576;2023-07-22T10:23:34;1.80;;;1.70;;
26034;SDS011;13809;48.632;11.576;2023-07-22T10:28:40;1.93;;;1.83;;
26034;SDS011;13809;48.632;11.576;2023-07-22T10:33:47;2.07;;;1.93;;
26034;SDS011;13809;48.632;11.576;2023-07-22T10:38:55;1.77;;;1.67;;
26034;SDS011;13809;48.632;11.576;2023-07-22T10:44:01;2.23;;;1.67;;
26034;SDS011;13809;48.632;11.576;2023-07-22T10:49:10;2.10;;;1.90;;
26034;SDS011;13809;48.632;11.576;2023-07-22T10:54:14;1.70;;;1.60;;
26034;SDS011;13809;48.632;11.576;2023-07-22T10:59:33;4.03;;;1.80;;
26034;SDS011;13809;48.632;11.576;2023-07-22T11:04:39;1.60;;;1.50;;
26034;SDS011;13809;48.632;11.576;2023-07-22T11:09:56;1.60;;;1.50;;
26034;SDS011;13809;48.632;11.576;2023-07-22T11:15:01;1.70;;;1.60;;
26034;SDS011;13809;48.632;11.576;2023-07-22T11:20:09;2.40;;;1.80;;
26034;SDS011;13809;48.632;11.576;2023-07-22T11:25:16;2.47;;;1.50;;
26034;SDS011;13809;48.632;11.576;2023-07-22T11:30:22;1.67;;;1.50;;
26034;SDS011;13809;48.632;11.576;2023-07-22T11:35:28;1.70;;;1.60;;
26034;SDS011;13809;48.632;11.576;2023-07-22T11:40:34;1.80;;;1.70;;
26034;SDS011;13809;48.632;11.576;2023-07-22T11:45:38;2.00;;;1.80;;
26034;SDS011;13809;48.632;11.576;2023-07-22T11:50:44;1.80;;;1.70;;
26034;SDS011;13809;48.632;11.576;2023-07-22T11:55:47;2.10;;;1.90;;
26034;SDS011;13809;48.632;11.576;2023-07-22T12:01:01;1.87;;;1.70;;
26034;SDS011;13809;48.632;11.576;2023-07-22T12:06:08;2.43;;;1.73;;
26034;SDS011;13809;48.632;11.576;2023-07-22T12:11:18;1.80;;;1.70;;
26034;SDS011;13809;48.632;11.576;2023-07-22T12:16:22;1.77;;;1.67;;
26034;SDS011;13809;48.632;11.576;2023-07-22T12:21:28;1.70;;;1.60;;
26034;SDS011;13809;48.632;11.576;2023-07-22T12:26:32;1.60;;;1.50;;
26034;SDS011;13809;48.632;11.576;2023-07-22T12:31:35;2.00;;;1.90;;
26034;SDS011;13809;48.632;11.576;2023-07-22T12:36:40;2.93;;;1.80;;
26034;SDS011;13809;48.632;11.576;2023-07-22T12:41:45;1.87;;;1.73;;
26034;SDS011;13809;48.632;11.576;2023-07-22T12:46:54;2.90;;;1.90;;
26034;SDS011;13809;48.632;11.576;2023-07-22T12:51:58;1.80;;;1.70;;
26034;SDS011;13809;48.632;11.576;2023-07-22T12:57:06;1.80;;;1.70;;
26034;SDS011;13809;48.632;11.576;2023-07-22T13:02:09;1.90;;;1.80;;
26034;SDS011;13809;48.632;11.576;2023-07-22T13:07:14;1.90;;;1.80;;
26034;SDS011;13809;48.632;11.576;2023-07-22T13:12:19;2.13;;;1.70;;
26034;SDS011;13809;48.632;11.576;2023-07-22T13:17:23;1.70;;;1.60;;
26034;SDS011;13809;48.632;11.576;2023-07-22T13:22:28;2.13;;;1.97;;
26034;SDS011;13809;48.632;11.576;2023-07-22T13:27:31;1.90;;;1.80;;
26034;SDS011;13809;48.632;11.576;2023-07-22T13:32:35;1.77;;;1.67;;
26034;SDS011;13809;48.632;11.576;2023-07-22T13:37:42;4.13;;;2.07;;
26034;SDS011;13809;48.632;11.576;2023-07-22T13:42:45;1.90;;;1.80;;
26034;SDS011;13809;48.632;11.576;2023-07-22T13:47:49;1.97;;;1.70;;
26034;SDS011;13809;48.632;11.576;2023-07-22T13:52:54;1.90;;;1.80;;
26034;SDS011;13809;48.632;11.576;2023-07-22T13:57:58;2.17;;;2.00;;
26034;SDS011;13809;48.632;11.576;2023-07-22T14:03:02;2.30;;;1.77;;
26034;SDS011;13809;48.632;11.576;2023-07-22T14:08:08;2.50;;;2.30;;
26034;SDS011;13809;48.632;11.576;2023-07-22T14:13:12;2.27;;;2.07;;
26034;SDS011;13809;48.632;11.576;2023-07-22T14:18:16;2.33;;;1.80;;
26034;SDS011;13809;48.632;11.576;2023-07-22T14:23:22;1.90;;;1.80;;
26034;SDS011;13809;48.632;11.576;2023-07-22T14:28:26;3.00;;;1.90;;
26034;SDS011;13809;48.632;11.576;2023-07-22T14:33:29;1.90;;;1.80;;
26034;SDS011;13809;48.632;11.576;2023-07-22T14:38:34;2.07;;;1.97;;
26034;SDS011;13809;48.632;11.576;2023-07-22T14:43:37;2.57;;;2.10;;
26034;SDS011;13809;48.632;11.576;2023-07-22T14:48:41;2.00;;;1.90;;
26034;SDS011;13809;48.632;11.576;2023-07-22T14:53:47;3.30;;;2.00;;
26034;SDS011;13809;48.632;11.576;2023-07-22T14:58:51;1.90;;;1.80;;
26034;SDS011;13809;48.632;11.576;2023-07-22T15:03:54;2.03;;;1.90;;
26034;SDS011;13809;48.632;11.576;2023-07-22T15:08:59;2.30;;;2.10;;
26034;SDS011;13809;48.632;11.576;2023-07-22T15:14:10;1.90;;;1.80;;
26034;SDS011;13809;48.632;11.576;2023-07-22T15:19:18;1.70;;;1.60;;
26034;SDS011;13809;48.632;11.576;2023-07-22T15:24:23;1.80;;;1.70;;
26034;SDS011;13809;48.632;11.576;2023-07-22T15:29:27;1.90;;;1.80;;
26034;SDS011;13809;48.632;11.576;2023-07-22T15:34:30;1.80;;;1.70;;
26034;SDS011;13809;48.632;11.576;2023-07-22T15:39:36;3.13;;;2.93;;
26034;SDS011;13809;48.632;11.576;2023-07-22T15:44:39;2.53;;;2.33;;
26034;SDS011;13809;48.632;11.576;2023-07-22T15:49:42;2.10;;;1.87;;
26034;SDS011;13809;48.632;11.576;2023-07-22T15:54:46;2.30;;;2.10;;
26034;SDS011;13809;48.632;11.576;2023-07-22T15:59:50;1.90;;;1.77;;
26034;SDS011;13809;48.632;11.576;2023-07-22T16:04:53;2.60;;;2.40;;
26034;SDS011;13809;48.632;11.576;2023-07-22T16:09:57;2.17;;;2.00;;
26034;SDS011;13809;48.632;11.576;2023-07-22T16:15:00;2.43;;;2.10;;
26034;SDS011;13809;48.632;11.576;2023-07-22T16:20:07;1.73;;;1.63;;
26034;SDS011;13809;48.632;11.576;2023-07-22T16:25:14;2.73;;;1.80;;
26034;SDS011;13809;48.632;11.576;2023-07-22T16:30:17;2.67;;;1.90;;
26034;SDS011;13809;48.632;11.576;2023-07-22T16:35:20;1.77;;;1.67;;
26034;SDS011;13809;48.632;11.576;2023-07-22T16:40:28;2.20;;;2.00;;
26034;SDS011;13809;48.632;11.576;2023-07-22T16:45:31;1.83;;;1.73;;
26034;SDS011;13809;48.632;11.576;2023-07-22T16:50:34;2.07;;;1.90;;
26034;SDS011;13809;48.632;11.576;2023-07-22T16:55:39;2.47;;;2.10;;
26034;SDS011;13809;48.632;11.576;2023-07-22T17:00:42;1.90;;;1.80;;
26034;SDS011;13809;48.632;11.576;2023-07-22T17:05:49;1.90;;;1.80;;
26034;SDS011;13809;48.632;11.576;2023-07-22T17:10:53;1.83;;;1.70;;
26034;SDS011;13809;48.632;11.576;2023-07-22T17:15:58;2.00;;;1.83;;
26034;SDS011;13809;48.632;11.576;2023-07-22T17:21:01;2.03;;;1.93;;
26034;SDS011;13809;48.632;11.576;2023-07-22T17:26:06;2.07;;;1.87;;
26034;SDS011;13809;48.632;11.576;2023-07-22T17:31:09;2.27;;;1.90;;
26034;SDS011;13809;48.632;11.576;2023-07-22T17:36:13;2.63;;;1.90;;
26034;SDS011;13809;48.632;11.576;2023-07-22T17:41:17;2.00;;;1.90;;
26034;SDS011;13809;48.632;11.576;2023-07-22T17:46:20;2.33;;;2.00;;
26034;SDS011;13809;48.632;11.576;2023-07-22T17:51:24;2.63;;;2.07;;
26034;SDS011;13809;48.632;11.576;2023-07-22T17:56:29;2.20;;;2.10;;
26034;SDS011;13809;48.632;11.576;2023-07-22T18:01:32;2.27;;;2.00;;
26034;SDS011;13809;48.632;11.576;2023-07-22T18:06:35;2.13;;;1.93;;
26034;SDS011;13809;48.632;11.576;2023-07-22T18:11:40;2.10;;;1.90;;
26034;SDS011;13809;48.632;11.576;2023-07-22T18:16:46;1.97;;;1.87;;
26034;SDS011;13809;48.632;11.576;2023-07-22T18:21:50;2.97;;;2.07;;
26034;SDS011;13809;48.632;11.576;2023-07-22T18:26:54;4.53;;;2.50;;
26034;SDS011;13809;48.632;11.576;2023-07-22T18:31:57;2.60;;;2.40;;
26034;SDS011;13809;48.632;11.576;2023-07-22T18:37:01;2.60;;;2.17;;
26034;SDS011;13809;48.632;11.576;2023-07-22T18:42:06;4.87;;;2.40;;
26034;SDS011;13809;48.632;11.576;2023-07-22T18:47:09;3.00;;;2.20;;
26034;SDS011;13809;48.632;11.576;2023-07-22T18:52:12;2.30;;;2.10;;
26034;SDS011;13809;48.632;11.576;2023-07-22T18:57:16;2.40;;;2.20;;
26034;SDS011;13809;48.632;11.576;2023-07-22T19:02:20;3.67;;;2.20;;
26034;SDS011;13809;48.632;11.576;2023-07-22T19:07:23;3.37;;;2.53;;
26034;SDS011;13809;48.632;11.576;2023-07-22T19:12:27;4.43;;;3.47;;
26034;SDS011;13809;48.632;11.576;2023-07-22T19:17:31;4.53;;;4.00;;
26034;SDS011;13809;48.632;11.576;2023-07-22T19:22:34;3.50;;;3.20;;
26034;SDS011;13809;48.632;11.576;2023-07-22T19:27:39;3.10;;;2.80;;
26034;SDS011;13809;48.632;11.576;2023-07-22T19:32:42;3.00;;;2.80;;
26034;SDS011;13809;48.632;11.576;2023-07-22T19:37:46;3.30;;;3.00;;
26034;SDS011;13809;48.632;11.576;2023-07-22T19:42:50;2.80;;;2.60;;
26034;SDS011;13809;48.632;11.576;2023-07-22T19:47:54;3.20;;;2.43;;
26034;SDS011;13809;48.632;11.576;2023-07-22T19:52:57;2.90;;;2.60;;
26034;SDS011;13809;48.632;11.576;2023-07-22T19:58:01;3.43;;;2.50;;
26034;SDS011;13809;48.632;11.576;2023-07-22T20:03:05;2.33;;;2.13;;
26034;SDS011;13809;48.632;11.576;2023-07-22T20:08:08;2.37;;;2.17;;
26034;SDS011;13809;48.632;11.576;2023-07-22T20:13:13;4.07;;;3.50;;
26034;SDS011;13809;48.632;11.576;2023-07-22T20:18:16;4.73;;;3.00;;
26034;SDS011;13809;48.632;11.576;2023-07-22T20:23:20;13.60;;;12.20;;
26034;SDS011;13809;48.632;11.576;2023-07-22T20:28:25;6.60;;;6.00;;
26034;SDS011;13809;48.632;11.576;2023-07-22T20:33:28;4.10;;;3.80;;
26034;SDS011;13809;48.632;11.576;2023-07-22T20:38:34;3.27;;;2.97;;
26034;SDS011;13809;48.632;11.576;2023-07-22T20:43:38;4.00;;;3.60;;
26034;SDS011;13809;48.632;11.576;2023-07-22T20:48:42;6.97;;;5.27;;
26034;SDS011;13809;48.632;11.576;2023-07-22T20:53:45;7.30;;;5.70;;
26034;SDS011;13809;48.632;11.576;2023-07-22T20:58:49;4.60;;;3.90;;
26034;SDS011;13809;48.632;11.576;2023-07-22T21:03:52;4.07;;;3.17;;
26034;SDS011;13809;48.632;11.576;2023-07-22T21:08:56;4.50;;;3.60;;
26034;SDS011;13809;48.632;11.576;2023-07-22T21:14:01;3.87;;;3.47;;
26034;SDS011;13809;48.632;11.576;2023-07-22T21:19:04;5.00;;;3.47;;
26034;SDS011;13809;48.632;11.576;2023-07-22T21:24:07;3.77;;;3.47;;
26034;SDS011;13809;48.632;11.576;2023-07-22T21:29:12;4.07;;;3.30;;
26034;SDS011;13809;48.632;11.576;2023-07-22T21:34:16;5.37;;;3.30;;
26034;SDS011;13809;48.632;11.576;2023-07-22T21:39:20;5.63;;;3.10;;
26034;SDS011;13809;48.632;11.576;2023-07-22T21:44:25;6.33;;;4.10;;
26034;SDS011;13809;48.632;11.576;2023-07-22T21:49:28;3.60;;;3.13;;
26034;SDS011;13809;48.632;11.576;2023-07-22T21:54:32;4.83;;;4.10;;
26034;SDS011;13809;48.632;11.576;2023-07-22T21:59:36;6.10;;;3.93;;
26034;SDS011;13809;48.632;11.576;2023-07-22T22:04:41;5.80;;;3.90;;
26034;SDS011;13809;48.632;11.576;2023-07-22T22:09:44;4.97;;;4.07;;
26034;SDS011;13809;48.632;11.576;2023-07-22T22:14:52;4.63;;;3.47;;
26034;SDS011;13809;48.632;11.576;2023-07-22T22:19:56;3.73;;;3.43;;
26034;SDS011;13809;48.632;11.576;2023-07-22T22:24:59;3.73;;;3.30;;
26034;SDS011;13809;48.632;11.576;2023-07-22T22:30:05;4.70;;;3.67;;
26034;SDS011;13809;48.632;11.576;2023-07-22T22:35:10;5.80;;;4.90;;
26034;SDS011;13809;48.632;11.576;2023-07-22T22:40:13;3.83;;;3.37;;
26034;SDS011;13809;48.632;11.576;2023-07-22T22:45:18;5.40;;;3.73;;
26034;SDS011;13809;48.632;11.576;2023-07-22T22:50:21;4.30;;;3.50;;
26034;SDS011;13809;48.632;11.576;2023-07-22T22:55:24;4.17;;;3.77;;
26034;SDS011;13809;48.632;11.576;2023-07-22T23:00:29;4.77;;;3.93;;
26034;SDS011;13809;48.632;11.576;2023-07-22T23:05:32;5.90;;;3.53;;
26034;SDS011;13809;48.632;11.576;2023-07-22T23:10:36;3.87;;;3.57;;
26034;SDS011;13809;48.632;11.576;2023-07-22T23:15:40;5.73;;;3.47;;
26034;SDS011;13809;48.632;11.576;2023-07-22T23:20:43;4.17;;;3.60;;
26034;SDS011;13809;48.632;11.576;2023-07-22T23:25:47;4.40;;;3.70;;
26034;SDS011;13809;48.632;11.576;2023-07-22T23:30:55;5.80;;;3.70;;
26034;SDS011;13809;48.632;11.576;2023-07-22T23:35:59;5.67;;;3.70;;
26034;SDS011;13809;48.632;11.576;2023-07-22T23:41:03;3.37;;;3.07;;
26034;SDS011;13809;48.632;11.576;2023-07-22T23:46:10;4.27;;;3.87;;
26034;SDS011;13809;48.632;11.576;2023-07-22T23:51:13;4.77;;;3.50;;
26034;SDS011;13809;48.632;11.576;2023-07-22T23:56:17;3.83;;;3.50;;
